Terminal Aerodrome Forecast
Issued by NWS Tuscon, AZ

Home | Current Version | Previous Version | Text Only | Print | Product List | Glossary On
Versions: 1 2 3 4 5 6 7 8 9 10 11 12 13
000
FTUS45 KTWC 281700
TAFDUG
TAF
KDUG 281733Z 2818/2918 26008KT P6SM BKN250
     FM281900 25005KT P6SM FEW080 BKN250
     FM290200 02005KT P6SM OVC200
     FM291000 VRB03KT P6SM FEW130 OVC180
     FM291600 13011G18KT P6SM SCT100 OVC150=

USA.gov is the U.S. government's official web portal to all federal, state and local government web resources and services.